Latest Weather Observations for Red Rocks Point

IDW60801

Issued at 1:32 pm WST Saturday 5 September 2015 (issued every 30 minutes, with the page automatically refreshed every 10 minutes)

About weather observations | Map of weather stations | Latest weather observations for WA | Other Formats
Station Details ID: 011053 Name: RED ROCKS POINT Lat: -32.20 Lon: 127.53 Height: 3.1 m
Data from the previous 72 hours. | See also: Recent months at Red Rocks Point
Date/Time
WST
Temp
°C
App
Temp
°C
Dew
Point
Rel
Hum
%
Delta-T
°C
Wind Press
QNH
hPa
Press
MSL
hPa
Rain
since 9 am
mm
Dir
 
Spd
km/h
Gust
km/h
Spd
kts
Gust
kts
05/01:30pm 18.2 13.3 7.0 48 5.6 W 22 35 12 19 1014.7 - 0.0
05/01:00pm 18.6 13.9 7.7 49 5.5 WSW 22 33 12 18 1014.1 - 0.0
05/12:30pm 22.1 18.0 2.2 27 9.3 WNW 13 20 7 11 1013.6 - 0.0
05/12:00pm 21.9 16.6 2.1 27 9.3 NNW 19 28 10 15 1013.3 1013.3 0.0
05/11:30am 21.5 16.2 1.7 27 9.2 NNW 19 33 10 18 1013.6 - 0.0
05/11:00am 21.4 16.0 2.2 28 9.0 NNW 20 32 11 17 1014.2 - 0.0
05/10:30am 21.0 15.1 1.8 28 8.9 NW 22 33 12 18 1014.9 - 0.0
05/10:00am 20.3 14.9 2.6 31 8.2 NW 20 37 11 20 1015.3 - 0.0
05/09:30am 20.3 14.8 1.7 29 8.5 NW 20 39 11 21 1015.9 - 0.0
05/09:00am 21.0 15.0 3.2 31 8.4 NNW 24 35 13 19 1015.5 1015.5 0.0
05/08:30am 20.5 14.8 2.8 31 8.3 NNW 22 33 12 18 1015.2 - 0.0
05/08:00am 19.1 13.5 3.7 36 7.3 N 22 35 12 19 1015.3 - 0.0
05/07:30am 17.3 12.2 4.3 42 6.1 N 20 33 11 18 1015.5 - 0.0
05/07:00am 15.3 10.3 4.4 48 5.1 N 20 37 11 20 1015.3 - 0.0
05/06:30am 13.5 8.4 4.1 53 4.3 N 20 30 11 16 1015.3 - 0.0
05/06:00am 13.2 7.8 4.4 55 4.0 N 22 32 12 17 1015.4 1015.4 0.0
05/05:30am 12.9 7.8 4.3 56 3.9 N 20 28 11 15 1015.3 - 0.0
05/05:00am 13.4 8.0 4.6 55 4.0 N 22 30 12 16 1015.3 - 0.0
05/04:30am 13.3 8.3 4.7 56 4.0 N 20 32 11 17 1015.1 - 0.0
05/04:00am 13.3 8.4 5.2 58 3.8 N 20 28 11 15 1015.1 - 0.0
05/03:30am 11.4 7.1 5.3 66 2.8 N 17 26 9 14 1015.1 - 0.0
05/03:00am 10.8 6.6 5.8 71 2.3 NNE 17 22 9 12 1015.3 1015.3 0.0
05/02:30am 10.1 6.7 5.7 74 2.0 NNE 13 19 7 10 1015.9 - 0.0
05/02:00am 10.7 7.0 6.1 73 2.1 NNE 15 20 8 11 1016.3 - 0.0
05/01:30am 10.7 6.2 6.3 74 2.1 NNE 19 26 10 14 1016.6 - 0.0
05/01:00am 10.7 6.6 6.3 74 2.1 NNE 17 24 9 13 1017.2 - 0.0
05/12:30am 10.9 6.4 6.3 73 2.2 NNE 19 28 10 15 1017.8 - 0.0
05/12:00am 11.2 6.7 6.3 72 2.3 NNE 19 26 10 14 1018.4 1018.4 0.0
 
Date/Time
WST
Temp
°C
App
Temp
°C
Dew
Point
Rel
Hum
%
Delta-T
°C
Wind Press
QNH
hPa
Press
MSL
hPa
Rain
since 9 am
mm
Dir
 
Spd
km/h
Gust
km/h
Spd
kts
Gust
kts
04/11:30pm 11.4 7.0 6.5 72 2.3 NNE 19 28 10 15 1018.5 - 0.0
04/11:00pm 11.4 6.8 6.5 72 2.3 NNE 20 28 11 15 1019.0 - 0.0
04/10:30pm 11.6 7.2 6.7 72 2.3 NNE 19 26 10 14 1019.7 - 0.0
04/10:00pm 11.9 7.6 7.2 73 2.3 NNE 19 24 10 13 1020.1 - 0.0
04/09:30pm 12.0 8.5 7.3 73 2.3 NNE 15 19 8 10 1020.9 - 0.0
04/09:00pm 12.3 8.5 7.6 73 2.3 NE 17 20 9 11 1021.0 1021.0 0.0
04/08:30pm 12.6 8.5 7.7 72 2.4 NE 19 26 10 14 1020.9 - 0.0
04/08:00pm 13.1 8.9 8.2 72 2.4 NE 20 30 11 16 1021.0 - 0.0
04/07:30pm 13.6 8.7 8.4 71 2.6 NE 24 30 13 16 1020.8 - 0.0
04/07:00pm 13.7 9.5 8.3 70 2.7 NE 20 24 11 13 1021.1 - 0.0
04/06:30pm 14.0 9.9 8.6 70 2.7 NE 20 28 11 15 1021.0 - 0.0
04/06:00pm 14.9 9.5 10.9 77 2.1 ENE 30 35 16 19 1020.5 1020.5 0.0
04/05:30pm 15.0 8.7 11.2 78 2.0 ENE 35 41 19 22 1020.2 - 0.0
04/05:00pm 15.1 9.9 11.5 79 1.9 ENE 30 37 16 20 1020.4 - 0.0
04/04:30pm 15.4 11.0 11.8 79 1.9 ENE 26 32 14 17 1020.4 - 0.0
04/04:00pm 15.8 11.1 12.0 78 2.1 ENE 28 33 15 18 1020.4 - 0.0
04/03:30pm 16.0 11.2 11.8 76 2.3 E 28 32 15 17 1020.4 - 0.0
04/03:00pm 16.2 11.8 11.6 74 2.5 E 26 32 14 17 1020.9 1020.9 0.0
04/02:30pm 16.6 12.3 11.9 74 2.6 E 26 30 14 16 1021.2 - 0.0
04/02:00pm 16.9 13.0 12.0 73 2.7 E 24 30 13 16 1021.4 - 0.0
04/01:30pm 16.8 12.8 11.9 73 2.7 E 24 28 13 15 1021.6 - 0.0
04/01:00pm 16.7 12.3 11.6 72 2.8 E 26 30 14 16 1021.9 - 0.0
04/12:30pm 16.4 12.3 11.3 72 2.7 E 24 28 13 15 1022.4 - 0.0
04/12:00pm 17.1 13.0 11.6 70 3.0 ESE 24 28 13 15 1022.8 1022.8 0.0
04/11:30am 18.4 14.4 10.5 60 4.2 ESE 22 26 12 14 1023.5 - 0.0
04/11:00am 19.3 16.1 6.8 44 6.3 NNE 13 22 7 12 1024.1 - 0.0
04/10:30am 18.9 15.0 7.0 46 6.0 N 17 24 9 13 1024.5 - 0.0
04/10:00am 18.6 14.6 8.3 51 5.3 NE 19 24 10 13 1024.7 - 0.0
04/09:30am 17.1 13.4 8.0 55 4.6 N 17 24 9 13 1025.2 - 0.0
04/09:00am 16.3 12.5 9.0 62 3.7 N 19 26 10 14 1025.5 1025.5 0.0
04/08:30am 14.1 9.5 8.1 67 3.0 N 22 30 12 16 1025.8 - 0.0
04/08:00am 12.9 8.7 7.6 70 2.6 N 19 28 10 15 1025.9 - 0.0
04/07:30am 11.1 6.6 7.0 76 2.0 N 20 30 11 16 1026.0 - 0.0
04/07:00am 9.7 5.3 6.6 81 1.4 N 19 28 10 15 1025.8 - 0.0
04/06:30am 8.7 4.3 6.5 86 1.0 N 19 26 10 14 1025.6 - 0.0
04/06:00am 7.5 3.7 6.0 90 0.7 N 15 19 8 10 1025.5 1025.5 0.0
04/05:30am 7.1 3.6 5.4 89 0.8 N 13 15 7 8 1025.6 - 0.0
04/05:00am 7.3 3.8 5.4 88 0.8 N 13 20 7 11 1025.3 - 0.0
04/04:30am 7.8 4.0 5.6 86 1.0 N 15 20 8 11 1025.2 - 0.0
04/04:00am 8.6 4.5 6.2 85 1.1 N 17 24 9 13 1025.1 - 0.0
04/03:30am 8.5 4.8 6.1 85 1.1 NNE 15 20 8 11 1024.8 - 0.0
04/03:00am 9.0 4.6 6.6 85 1.1 NNE 19 24 10 13 1024.9 1024.9 0.0
04/02:30am 9.1 4.7 6.5 84 1.2 NNE 19 22 10 12 1025.2 - 0.0
04/02:00am 9.7 5.4 6.8 82 1.4 NNE 19 24 10 13 1025.6 - 0.0
04/01:30am 10.2 5.8 7.6 84 1.2 NE 20 26 11 14 1026.0 - 0.0
04/01:00am 9.8 5.6 7.4 85 1.1 NE 19 22 10 12 1026.5 - 0.0
04/12:30am 9.5 6.0 7.3 86 1.0 NNE 15 17 8 9 1026.9 - 0.0
04/12:00am 9.3 6.2 7.1 86 1.0 NNE 13 17 7 9 1027.0 1027.0 0.0
 
Date/Time
WST
Temp
°C
App
Temp
°C
Dew
Point
Rel
Hum
%
Delta-T
°C
Wind Press
QNH
hPa
Press
MSL
hPa
Rain
since 9 am
mm
Dir
 
Spd
km/h
Gust
km/h
Spd
kts
Gust
kts
03/11:30pm 9.5 6.4 7.3 86 1.0 N 13 17 7 9 1027.5 - 0.0
03/11:00pm 9.7 6.7 7.6 87 1.0 N 13 15 7 8 1027.8 - 0.0
03/10:30pm 9.5 6.4 7.4 87 1.0 N 13 15 7 8 1028.0 - 0.0
03/10:00pm 9.2 6.1 7.3 88 0.9 N 13 15 7 8 1028.3 - 0.0
03/09:30pm 8.8 6.7 6.6 86 1.0 N 7 11 4 6 1028.3 - 0.0
03/09:00pm 9.9 7.6 7.3 84 1.2 N 9 11 5 6 1028.2 1028.2 0.0
03/08:30pm 11.2 9.1 8.2 82 1.5 NNE 9 13 5 7 1027.9 - 0.0
03/08:00pm 13.4 10.5 10.9 85 1.3 E 17 20 9 11 1027.6 - 0.0
03/07:30pm 13.6 10.1 10.9 84 1.4 E 20 24 11 13 1027.4 - 0.0
03/07:00pm 13.4 9.5 10.8 84 1.4 E 22 26 12 14 1027.2 - 0.0
03/06:30pm 13.7 10.2 10.9 83 1.5 E 20 26 11 14 1027.1 - 0.0
03/06:00pm 13.4 9.4 10.4 82 1.5 E 22 24 12 13 1026.8 1026.8 0.0
03/05:30pm 13.4 9.8 10.4 82 1.6 E 20 24 11 13 1026.6 - 0.0
03/05:00pm 13.5 9.8 10.3 81 1.7 ESE 20 22 11 12 1026.4 - 0.0
03/04:30pm 13.6 10.2 10.4 81 1.7 ESE 19 20 10 11 1026.3 - 0.0
03/04:00pm 14.0 10.9 10.2 78 2.0 ESE 17 20 9 11 1026.4 - 0.0
03/03:30pm 14.2 10.8 10.6 79 1.9 ESE 19 20 10 11 1026.3 - 0.0
03/03:00pm 14.5 11.1 10.7 78 2.0 ESE 19 20 10 11 1026.4 1026.4 0.0
03/02:30pm 14.8 11.4 10.4 75 2.3 ESE 19 20 10 11 1026.2 - 0.0
03/02:00pm 14.8 11.4 10.6 76 2.2 ESE 19 24 10 13 1026.3 - 0.0
03/01:30pm 15.4 11.9 10.8 74 2.4 SE 20 22 11 12 1026.3 - 0.0
03/01:00pm 15.5 12.6 9.8 69 3.0 SE 15 17 8 9 1026.6 - 0.0
03/12:30pm 15.2 12.3 9.8 70 2.8 SE 15 19 8 10 1026.8 - 0.0
03/12:00pm 15.7 13.2 9.6 67 3.1 SE 13 15 7 8 1027.4 1027.4 0.0
03/11:30am 15.1 12.7 9.9 71 2.7 ESE 13 15 7 8 1027.7 - 0.0
03/11:00am 14.7 12.5 9.5 71 2.7 SE 11 13 6 7 1028.1 - 0.0
03/10:30am 14.5 12.4 9.7 73 2.5 SE 11 15 6 8 1028.2 - 0.0
03/10:00am 15.0 12.1 11.0 77 2.1 SE 17 19 9 10 1028.3 - 0.0
03/09:30am 15.3 13.2 9.9 70 2.8 SE 11 13 6 7 1028.5 - 0.0
03/09:00am 14.7 12.7 10.1 74 2.4 S 11 13 6 7 1028.7 1028.7 0.4
03/08:30am 14.2 12.5 11.2 82 1.6 SSE 11 15 6 8 1028.5 - 0.4
03/08:00am 13.1 13.6 11.5 90 0.8 CALM 0 0 0 0 1028.1 - 0.4
03/07:30am 11.8 10.3 10.5 92 0.7 WNW 9 11 5 6 1028.1 - 0.4
03/07:00am 10.9 8.8 9.7 92 0.6 WNW 11 13 6 7 1027.8 - 0.4
03/06:30am 10.1 8.5 8.7 91 0.7 W 7 11 4 6 1027.4 - 0.4
03/06:00am 9.8 7.7 8.1 89 0.8 WNW 9 15 5 8 1027.2 1027.2 0.4
03/05:30am 10.5 8.5 8.6 88 0.9 SSW 9 17 5 9 1026.7 - 0.4
03/05:00am 11.1 10.5 9.0 87 1.0 SSW 2 6 1 3 1026.6 - 0.4
03/04:30am 11.8 8.7 9.0 83 1.4 ESE 15 20 8 11 1026.5 - 0.0
03/04:00am 12.0 9.6 8.7 80 1.6 S 11 19 6 10 1026.2 - 0.0
03/03:30am 12.0 8.9 8.7 80 1.6 SSW 15 19 8 10 1026.1 - 0.0
03/03:00am 12.3 9.0 8.2 76 2.0 S 15 20 8 11 1025.8 1025.8 0.0
03/02:30am 13.0 9.2 8.9 76 2.1 S 19 24 10 13 1025.7 - 0.0
03/02:00am 12.6 9.5 7.3 70 2.6 SSW 13 17 7 9 1025.6 - 0.0
03/01:30am 12.4 8.8 6.7 68 2.7 S 15 19 8 10 1025.6 - 0.0
03/01:00am 12.9 9.6 8.2 73 2.3 S 15 20 8 11 1025.7 - 0.0
03/12:30am 12.6 9.2 7.7 72 2.4 SSW 15 19 8 10 1025.6 - 0.0
03/12:00am 12.6 9.2 7.7 72 2.4 SSW 15 20 8 11 1025.8 1025.8 0.0
 
Date/Time
WST
Temp
°C
App
Temp
°C
Dew
Point
Rel
Hum
%
Delta-T
°C
Wind Press
QNH
hPa
Press
MSL
hPa
Rain
since 9 am
mm
Dir
 
Spd
km/h
Gust
km/h
Spd
kts
Gust
kts
02/11:30pm 12.7 9.1 8.4 75 2.1 SSW 17 22 9 12 1025.9 - 0.0
02/11:00pm 12.8 8.8 9.1 78 1.9 S 20 24 11 13 1026.0 - 0.0
02/10:30pm 12.8 8.8 9.1 78 1.9 S 20 26 11 14 1026.1 - 0.0
02/10:00pm 12.7 9.0 9.3 80 1.7 SSW 19 24 10 13 1026.0 - 0.0
02/09:30pm 12.6 8.9 9.4 81 1.6 SSW 19 24 10 13 1025.9 - 0.0
02/09:00pm 12.5 10.1 10.0 85 1.3 S 13 20 7 11 1026.0 1026.0 0.0
02/08:30pm 12.4 8.2 9.8 84 1.3 SSW 22 32 12 17 1025.8 - 0.0
02/08:00pm 12.5 8.6 9.5 82 1.5 SSW 20 26 11 14 1025.4 - 0.0
02/07:30pm 12.5 8.6 9.5 82 1.5 SSW 20 26 11 14 1024.9 - 0.0
02/07:00pm 12.5 8.9 9.9 84 1.3 SSW 19 28 10 15 1024.8 - 0.0
02/06:30pm 12.4 8.9 10.1 86 1.2 SSW 19 26 10 14 1024.4 - 0.0
02/06:00pm 12.8 8.1 10.7 87 1.1 S 26 32 14 17 1024.1 1024.1 0.0
02/05:30pm 12.3 7.9 10.4 88 1.0 S 24 32 13 17 1023.8 - 0.0
02/05:00pm 12.6 9.4 10.1 85 1.3 WSW 17 26 9 14 1023.6 - 0.0
02/04:30pm 12.5 10.0 9.7 83 1.4 SW 13 19 7 10 1023.5 - 0.0
02/04:00pm 15.2 11.5 9.6 69 2.9 SW 19 30 10 16 1023.1 - 0.0
02/03:30pm 15.5 11.9 10.5 72 2.6 SW 20 30 11 16 1022.9 - 0.0
02/03:00pm 14.7 10.0 9.1 69 2.8 SW 24 32 13 17 1022.6 1022.6 0.0
02/02:30pm 15.0 10.3 9.1 68 3.0 SW 24 35 13 19 1022.3 - 0.0
02/02:00pm 15.7 11.2 10.2 70 2.9 SW 24 33 13 18 1022.1 - 0.0

Other Formats:

Comma delimited format used in spreadsheet applications
http://www.bom.gov.au/fwo/IDW60801/IDW60801.94644.axf

JavaScript Object Notation format (JSON) in row-major order
http://www.bom.gov.au/fwo/IDW60801/IDW60801.94644.json